Time;durP1;ratioP1;P1;durP2;ratioP2;P2;SDS_P1;SDS_P2;PMS_P1;PMS_P2;Temp;Humidity;BMP_temperature;BMP_pressure;BME280_temperature;BME280_humidity;BME280_pressure;Samples;Min_cycle;Max_cycle;Signal;HPM_P1;HPM_P2
2023/12/26 00:01:19;;;;;;;1.58;1.10;;;;;;;;;;5018262;28;20624;-84
2023/12/26 00:03:46;;;;;;;0.73;0.60;;;;;;;;;;5011275;28;20026;-79
2023/12/26 00:06:12;;;;;;;1.30;0.70;;;;;;;;;;5011403;28;20028;-83
2023/12/26 00:08:38;;;;;;;1.38;0.90;;;;;;;;;;5011664;28;20082;-82
2023/12/26 00:11:04;;;;;;;1.08;0.55;;;;;;;;;;5012624;28;20117;-79
2023/12/26 00:13:30;;;;;;;0.75;0.68;;;;;;;;;;5007639;28;20030;-80
2023/12/26 00:15:56;;;;;;;0.70;0.70;;;;;;;;;;5006857;28;20042;-80
2023/12/26 00:18:23;;;;;;;1.30;0.70;;;;;;;;;;5009756;28;20044;-80
2023/12/26 00:20:51;;;;;;;2.22;1.23;;;;;;;;;;5012385;28;20085;-81
2023/12/26 00:23:17;;;;;;;0.90;0.88;;;;;;;;;;5018369;28;20019;-84
2023/12/26 00:25:44;;;;;;;1.02;0.85;;;;;;;;;;5007940;28;20026;-80
2023/12/26 00:28:12;;;;;;;1.67;0.88;;;;;;;;;;5005745;28;20034;-80
2023/12/26 00:30:38;;;;;;;1.10;0.90;;;;;;;;;;5006182;28;20030;-80
2023/12/26 00:33:04;;;;;;;1.05;0.80;;;;;;;;;;5006073;28;20026;-81
2023/12/26 00:35:30;;;;;;;1.30;0.68;;;;;;;;;;5010827;28;20022;-81
2023/12/26 00:37:58;;;;;;;1.13;0.88;;;;;;;;;;5006104;28;20030;-80
2023/12/26 00:40:24;;;;;;;1.23;0.70;;;;;;;;;;5006235;28;20084;-80
2023/12/26 00:42:50;;;;;;;0.80;0.52;;;;;;;;;;5004996;28;20030;-81
2023/12/26 00:45:17;;;;;;;1.10;0.80;;;;;;;;;;5004343;28;20050;-81
2023/12/26 00:47:43;;;;;;;1.13;0.68;;;;;;;;;;5002305;28;20068;-81
2023/12/26 00:50:11;;;;;;;0.95;0.90;;;;;;;;;;5007153;28;20048;-81
2023/12/26 00:52:38;;;;;;;1.17;0.68;;;;;;;;;;5003703;28;20028;-80
2023/12/26 00:55:05;;;;;;;1.65;0.68;;;;;;;;;;5005860;28;20056;-81
2023/12/26 00:57:33;;;;;;;1.77;0.80;;;;;;;;;;5006618;28;20102;-81
2023/12/26 00:59:59;;;;;;;0.90;0.55;;;;;;;;;;5004157;28;20077;-81
2023/12/26 01:02:25;;;;;;;1.25;0.75;;;;;;;;;;5005296;28;20388;-81
2023/12/26 01:04:51;;;;;;;2.35;0.80;;;;;;;;;;5007248;28;20389;-80
2023/12/26 01:07:17;;;;;;;0.60;0.60;;;;;;;;;;5007173;28;20034;-82
2023/12/26 01:09:44;;;;;;;1.00;0.80;;;;;;;;;;5003971;28;20038;-79
2023/12/26 01:12:10;;;;;;;1.42;0.80;;;;;;;;;;5002970;28;20030;-82
2023/12/26 01:14:38;;;;;;;2.63;0.80;;;;;;;;;;5002931;28;20077;-81
2023/12/26 01:17:04;;;;;;;1.20;0.75;;;;;;;;;;5002439;28;20018;-82
2023/12/26 01:19:30;;;;;;;1.08;0.60;;;;;;;;;;5005688;28;20026;-81
2023/12/26 01:21:56;;;;;;;0.75;0.73;;;;;;;;;;5005364;28;20050;-81
2023/12/26 01:24:22;;;;;;;0.70;0.60;;;;;;;;;;5004824;28;20037;-83
2023/12/26 01:26:48;;;;;;;2.60;1.10;;;;;;;;;;5014821;28;20041;-81
2023/12/26 01:29:15;;;;;;;1.98;0.93;;;;;;;;;;5007402;28;20034;-82
2023/12/26 01:31:41;;;;;;;3.33;0.80;;;;;;;;;;5008483;28;20037;-82
2023/12/26 01:34:07;;;;;;;1.80;0.90;;;;;;;;;;5006114;28;20397;-81
2023/12/26 01:36:33;;;;;;;2.30;0.80;;;;;;;;;;5006575;28;20033;-81
2023/12/26 01:39:02;;;;;;;1.95;0.50;;;;;;;;;;5006592;28;20482;-82
2023/12/26 01:41:28;;;;;;;0.77;0.60;;;;;;;;;;5006291;28;20042;-83
2023/12/26 01:43:54;;;;;;;0.70;0.60;;;;;;;;;;5015373;28;20040;-83
2023/12/26 01:46:21;;;;;;;0.90;0.65;;;;;;;;;;5010508;28;20054;-81
2023/12/26 01:48:48;;;;;;;0.60;0.60;;;;;;;;;;5005544;28;20164;-81
2023/12/26 01:51:15;;;;;;;0.75;0.47;;;;;;;;;;5007290;28;20026;-82
2023/12/26 01:53:42;;;;;;;2.38;0.90;;;;;;;;;;5007719;28;20022;-81
2023/12/26 01:56:09;;;;;;;0.57;0.57;;;;;;;;;;5007770;28;20026;-82
2023/12/26 01:58:36;;;;;;;2.35;1.00;;;;;;;;;;5006412;28;20018;-83
2023/12/26 02:01:02;;;;;;;1.80;0.60;;;;;;;;;;5024396;28;20031;-84
2023/12/26 02:03:28;;;;;;;1.15;1.05;;;;;;;;;;5016128;28;20033;-82
2023/12/26 02:05:55;;;;;;;1.05;0.65;;;;;;;;;;5008195;28;20056;-83
2023/12/26 02:08:22;;;;;;;0.82;0.77;;;;;;;;;;5015146;28;20074;-83
2023/12/26 02:10:48;;;;;;;1.45;0.90;;;;;;;;;;5017090;28;20037;-83
2023/12/26 02:13:14;;;;;;;0.80;0.65;;;;;;;;;;5009734;28;20035;-82
2023/12/26 02:15:41;;;;;;;2.53;0.80;;;;;;;;;;5010190;28;20050;-80
2023/12/26 02:18:07;;;;;;;1.92;0.80;;;;;;;;;;4996867;28;20030;-81
2023/12/26 02:20:33;;;;;;;1.40;0.75;;;;;;;;;;4998265;28;20030;-82
2023/12/26 02:22:59;;;;;;;1.17;0.80;;;;;;;;;;5001263;28;20458;-80
2023/12/26 02:25:25;;;;;;;0.70;0.57;;;;;;;;;;5001124;28;20030;-81
2023/12/26 02:27:52;;;;;;;1.25;0.65;;;;;;;;;;4998522;28;20078;-80
2023/12/26 02:30:18;;;;;;;1.15;0.70;;;;;;;;;;4997626;28;20109;-81
2023/12/26 02:32:46;;;;;;;2.15;1.38;;;;;;;;;;5000521;28;20021;-85
2023/12/26 02:35:13;;;;;;;2.17;0.98;;;;;;;;;;5025066;28;20040;-84
2023/12/26 02:37:39;;;;;;;1.27;0.82;;;;;;;;;;5009311;28;20054;-81
2023/12/26 02:40:07;;;;;;;0.88;0.50;;;;;;;;;;5006863;28;20022;-82
2023/12/26 02:42:33;;;;;;;0.93;0.65;;;;;;;;;;5007155;28;20492;-81
2023/12/26 02:44:59;;;;;;;0.75;0.70;;;;;;;;;;5006553;28;20492;-82
2023/12/26 02:47:26;;;;;;;0.60;0.60;;;;;;;;;;5008579;28;20057;-81
2023/12/26 02:49:52;;;;;;;1.23;0.60;;;;;;;;;;5012632;28;20010;-80
2023/12/26 02:52:18;;;;;;;2.83;0.80;;;;;;;;;;5008827;28;20059;-83
2023/12/26 02:54:44;;;;;;;0.73;0.52;;;;;;;;;;5006859;28;20026;-82
2023/12/26 02:57:10;;;;;;;0.60;0.60;;;;;;;;;;5010832;28;20145;-82
2023/12/26 02:59:36;;;;;;;1.05;0.70;;;;;;;;;;5010712;28;20086;-82
2023/12/26 03:02:02;;;;;;;0.73;0.40;;;;;;;;;;5012969;28;20085;-83
2023/12/26 03:04:29;;;;;;;0.50;0.50;;;;;;;;;;5010116;28;20026;-81
2023/12/26 03:06:55;;;;;;;1.05;0.60;;;;;;;;;;5010753;28;20034;-81
2023/12/26 03:09:22;;;;;;;0.85;0.70;;;;;;;;;;5011898;28;20060;-81
2023/12/26 03:11:55;;;;;;;1.00;0.70;;;;;;;;;;5011437;28;20037;-82
2023/12/26 03:14:21;;;;;;;1.42;0.65;;;;;;;;;;5009910;28;20589;-81
2023/12/26 03:16:49;;;;;;;0.68;0.50;;;;;;;;;;5009881;28;20085;-82
2023/12/26 03:19:15;;;;;;;2.33;0.63;;;;;;;;;;5011468;28;20030;-80
2023/12/26 03:21:41;;;;;;;1.00;0.50;;;;;;;;;;5011706;28;20078;-81
2023/12/26 03:24:07;;;;;;;0.70;0.50;;;;;;;;;;5025573;23;20026;-77
2023/12/26 03:26:33;;;;;;;0.88;0.88;;;;;;;;;;5040500;28;20029;-79
2023/12/26 03:29:00;;;;;;;0.95;0.70;;;;;;;;;;5036807;28;20029;-79
2023/12/26 03:31:26;;;;;;;1.15;0.73;;;;;;;;;;5045612;28;20025;-78
2023/12/26 03:33:52;;;;;;;1.55;0.73;;;;;;;;;;5042567;28;20030;-77
2023/12/26 03:36:18;;;;;;;1.35;0.57;;;;;;;;;;5037690;28;20025;-79
2023/12/26 03:38:45;;;;;;;0.75;0.70;;;;;;;;;;5031687;28;20403;-80
2023/12/26 03:41:11;;;;;;;0.85;0.60;;;;;;;;;;5048008;28;20025;-78
2023/12/26 03:43:38;;;;;;;0.52;0.52;;;;;;;;;;5045252;28;20065;-77
2023/12/26 03:46:04;;;;;;;0.52;0.50;;;;;;;;;;5039837;28;20030;-78
2023/12/26 03:48:30;;;;;;;0.63;0.50;;;;;;;;;;5022764;28;20029;-78
2023/12/26 03:50:56;;;;;;;0.50;0.50;;;;;;;;;;5034703;28;20029;-78
2023/12/26 03:53:22;;;;;;;1.05;0.75;;;;;;;;;;5037015;28;20033;-78
2023/12/26 03:55:49;;;;;;;0.80;0.77;;;;;;;;;;5035845;28;20026;-78
2023/12/26 03:58:15;;;;;;;1.35;0.80;;;;;;;;;;5033627;28;20034;-78
2023/12/26 04:00:41;;;;;;;1.48;0.75;;;;;;;;;;5026187;28;20030;-77
2023/12/26 04:03:07;;;;;;;1.20;0.88;;;;;;;;;;5031395;28;20049;-78
2023/12/26 04:05:33;;;;;;;0.80;0.60;;;;;;;;;;5037420;28;20079;-77
2023/12/26 04:07:59;;;;;;;0.93;0.75;;;;;;;;;;5034625;28;20025;-76
2023/12/26 04:10:26;;;;;;;1.20;0.98;;;;;;;;;;5033716;28;20018;-76
2023/12/26 04:12:52;;;;;;;1.35;0.82;;;;;;;;;;5034148;28;20026;-76
2023/12/26 04:15:18;;;;;;;1.00;0.90;;;;;;;;;;5035269;28;20083;-77
2023/12/26 04:17:44;;;;;;;0.60;0.60;;;;;;;;;;5036816;28;20022;-78
2023/12/26 04:20:10;;;;;;;0.93;0.80;;;;;;;;;;5028711;28;20032;-77
2023/12/26 04:22:36;;;;;;;0.95;0.70;;;;;;;;;;5033329;28;20022;-76
2023/12/26 04:25:05;;;;;;;1.15;0.73;;;;;;;;;;5036980;28;20040;-75
2023/12/26 04:27:31;;;;;;;1.15;0.70;;;;;;;;;;5034808;28;20507;-77
2023/12/26 04:29:57;;;;;;;0.75;0.63;;;;;;;;;;5034680;28;20033;-78
2023/12/26 04:32:23;;;;;;;0.60;0.60;;;;;;;;;;5044847;28;20021;-78
2023/12/26 04:34:49;;;;;;;1.63;0.95;;;;;;;;;;5026817;28;20018;-77
2023/12/26 04:37:16;;;;;;;1.80;0.93;;;;;;;;;;5022157;28;20037;-76
2023/12/26 04:39:42;;;;;;;0.65;0.50;;;;;;;;;;5031160;28;20044;-76
2023/12/26 04:42:08;;;;;;;0.93;0.52;;;;;;;;;;5031578;28;20022;-77
2023/12/26 04:44:34;;;;;;;1.13;0.52;;;;;;;;;;5031152;28;20034;-78
2023/12/26 04:47:00;;;;;;;1.05;0.60;;;;;;;;;;5029223;28;21596;-76
2023/12/26 04:49:26;;;;;;;0.50;0.45;;;;;;;;;;5030791;28;20040;-77
2023/12/26 04:51:52;;;;;;;1.05;0.65;;;;;;;;;;5032905;28;20072;-78
2023/12/26 04:54:19;;;;;;;0.90;0.70;;;;;;;;;;5033849;28;20127;-79
2023/12/26 04:56:45;;;;;;;1.55;1.13;;;;;;;;;;5037592;28;20054;-77
2023/12/26 04:59:11;;;;;;;4.32;1.30;;;;;;;;;;5036995;28;20030;-76
2023/12/26 05:01:44;;;;;;;1.15;0.65;;;;;;;;;;5045054;28;20048;-77
2023/12/26 05:04:10;;;;;;;2.20;1.10;;;;;;;;;;5033967;28;20511;-77
2023/12/26 05:06:37;;;;;;;2.03;0.88;;;;;;;;;;5039627;28;20048;-77
2023/12/26 05:09:03;;;;;;;1.02;0.73;;;;;;;;;;5037138;28;20048;-79
2023/12/26 05:11:29;;;;;;;1.42;1.00;;;;;;;;;;5023791;28;20100;-76
2023/12/26 05:13:55;;;;;;;1.42;0.77;;;;;;;;;;5030151;28;20037;-78
2023/12/26 05:16:21;;;;;;;1.85;0.60;;;;;;;;;;5031412;28;20025;-78
2023/12/26 05:18:47;;;;;;;1.20;1.00;;;;;;;;;;5038433;28;20085;-78
2023/12/26 05:21:21;;;;;;;2.63;0.90;;;;;;;;;;5027308;28;20391;-78
2023/12/26 05:23:47;;;;;;;2.47;0.88;;;;;;;;;;5024709;28;20022;-77
2023/12/26 05:26:14;;;;;;;1.55;1.23;;;;;;;;;;5027477;28;20026;-78
2023/12/26 05:28:40;;;;;;;1.23;0.47;;;;;;;;;;5029665;28;20018;-78
2023/12/26 05:31:06;;;;;;;1.48;0.77;;;;;;;;;;5021472;28;20018;-77
2023/12/26 05:33:32;;;;;;;1.35;1.02;;;;;;;;;;5037930;28;20508;-78
2023/12/26 05:36:00;;;;;;;1.30;0.90;;;;;;;;;;5037932;28;20127;-78
2023/12/26 05:38:26;;;;;;;1.00;0.73;;;;;;;;;;5029133;28;20456;-78
2023/12/26 05:40:53;;;;;;;2.17;1.00;;;;;;;;;;5032177;28;20010;-76
2023/12/26 05:43:19;;;;;;;1.92;1.23;;;;;;;;;;5034932;28;20032;-77
2023/12/26 05:45:45;;;;;;;2.83;0.90;;;;;;;;;;5033414;28;20517;-76
2023/12/26 05:48:11;;;;;;;0.70;0.70;;;;;;;;;;5034439;28;20021;-76
2023/12/26 05:50:37;;;;;;;2.53;0.90;;;;;;;;;;5035178;28;20024;-76
2023/12/26 05:53:03;;;;;;;3.03;0.80;;;;;;;;;;5034828;28;20067;-78
2023/12/26 05:55:29;;;;;;;0.68;0.68;;;;;;;;;;5035397;28;20032;-77
2023/12/26 05:57:55;;;;;;;3.80;0.95;;;;;;;;;;5026361;28;20084;-76
2023/12/26 06:00:21;;;;;;;2.05;0.80;;;;;;;;;;5034877;28;20021;-76
2023/12/26 06:02:48;;;;;;;1.80;0.80;;;;;;;;;;5033080;28;20028;-76
2023/12/26 06:05:14;;;;;;;2.08;0.93;;;;;;;;;;5020108;28;20048;-77
2023/12/26 06:07:40;;;;;;;1.35;0.82;;;;;;;;;;5027231;28;20022;-77
2023/12/26 06:10:06;;;;;;;2.95;0.73;;;;;;;;;;5034248;28;20048;-78
2023/12/26 06:12:32;;;;;;;2.10;0.88;;;;;;;;;;5037188;28;20426;-76
2023/12/26 06:14:58;;;;;;;1.75;1.08;;;;;;;;;;5040362;28;20369;-77
2023/12/26 06:17:26;;;;;;;3.30;1.08;;;;;;;;;;5029199;28;20136;-77
2023/12/26 06:19:52;;;;;;;1.20;0.80;;;;;;;;;;5032351;28;20021;-76
2023/12/26 06:22:18;;;;;;;1.42;1.10;;;;;;;;;;5031297;28;20032;-76
2023/12/26 06:24:44;;;;;;;3.05;0.82;;;;;;;;;;4995647;28;1291450;-76
2023/12/26 06:27:10;;;;;;;0.75;0.60;;;;;;;;;;5035025;28;20017;-76
2023/12/26 06:29:36;;;;;;;0.95;0.70;;;;;;;;;;5034169;28;20045;-77
2023/12/26 06:32:02;;;;;;;1.13;0.80;;;;;;;;;;5036373;28;20026;-76
2023/12/26 06:34:28;;;;;;;1.58;0.70;;;;;;;;;;5038556;28;20033;-76
2023/12/26 06:36:55;;;;;;;0.98;0.70;;;;;;;;;;5038719;28;20025;-77
2023/12/26 06:39:21;;;;;;;0.88;0.70;;;;;;;;;;5035610;28;20534;-76
2023/12/26 06:41:47;;;;;;;1.95;0.70;;;;;;;;;;5036238;28;20445;-77
2023/12/26 06:44:13;;;;;;;1.65;0.77;;;;;;;;;;5038967;28;20057;-78
2023/12/26 06:46:40;;;;;;;0.88;0.77;;;;;;;;;;5031868;28;20077;-76
2023/12/26 06:49:07;;;;;;;3.38;1.08;;;;;;;;;;5045151;28;20025;-75
2023/12/26 06:51:33;;;;;;;2.05;0.82;;;;;;;;;;5039449;28;20075;-77
2023/12/26 06:53:59;;;;;;;2.08;0.90;;;;;;;;;;5037715;28;20095;-77
2023/12/26 06:56:25;;;;;;;3.90;0.95;;;;;;;;;;5036650;28;20839;-78
2023/12/26 06:58:52;;;;;;;2.17;0.90;;;;;;;;;;5026703;28;20028;-79
2023/12/26 07:01:18;;;;;;;8.07;0.93;;;;;;;;;;5042730;28;20022;-78
2023/12/26 07:03:45;;;;;;;1.48;0.80;;;;;;;;;;5038163;28;20389;-77
2023/12/26 07:06:11;;;;;;;2.75;1.63;;;;;;;;;;5038421;28;20028;-77
2023/12/26 07:08:37;;;;;;;2.50;1.20;;;;;;;;;;5037848;28;20089;-76
2023/12/26 07:11:03;;;;;;;2.55;1.00;;;;;;;;;;5034404;28;20127;-76
2023/12/26 07:13:29;;;;;;;0.98;0.88;;;;;;;;;;5032257;28;20064;-76
2023/12/26 07:15:55;;;;;;;2.58;0.90;;;;;;;;;;5037698;28;20034;-77
2023/12/26 07:18:21;;;;;;;0.68;0.50;;;;;;;;;;5036834;28;20022;-77
2023/12/26 07:20:48;;;;;;;1.20;0.80;;;;;;;;;;5033405;28;20095;-78
2023/12/26 07:23:14;;;;;;;1.65;0.63;;;;;;;;;;5038027;28;20044;-77
2023/12/26 07:25:43;;;;;;;5.72;1.05;;;;;;;;;;5030228;28;20034;-78
2023/12/26 07:28:10;;;;;;;3.35;0.88;;;;;;;;;;5035279;28;20327;-78
2023/12/26 07:30:41;;;;;;;1.95;1.00;;;;;;;;;;5036078;28;20081;-78
2023/12/26 07:33:07;;;;;;;1.92;0.90;;;;;;;;;;5034200;28;20403;-78
2023/12/26 07:35:36;;;;;;;1.50;0.70;;;;;;;;;;5024507;28;20026;-76
2023/12/26 07:38:02;;;;;;;2.35;0.90;;;;;;;;;;5036018;28;20022;-77
2023/12/26 07:40:30;;;;;;;4.63;1.15;;;;;;;;;;5040540;28;20029;-78
2023/12/26 07:42:57;;;;;;;3.28;0.90;;;;;;;;;;5036178;28;20053;-78
2023/12/26 07:45:24;;;;;;;5.18;0.90;;;;;;;;;;5036855;28;20027;-77
2023/12/26 07:47:51;;;;;;;2.50;0.90;;;;;;;;;;5029479;28;20029;-79
2023/12/26 07:50:17;;;;;;;2.67;0.85;;;;;;;;;;5031083;28;20024;-78
2023/12/26 07:52:43;;;;;;;2.38;0.90;;;;;;;;;;5033098;28;20022;-79
2023/12/26 07:55:10;;;;;;;2.03;0.80;;;;;;;;;;5035226;28;20068;-79
2023/12/26 07:57:36;;;;;;;3.70;0.93;;;;;;;;;;5031271;28;20085;-78
2023/12/26 08:00:02;;;;;;;2.25;0.90;;;;;;;;;;5030237;28;20030;-77
2023/12/26 08:02:28;;;;;;;2.22;1.05;;;;;;;;;;5026925;28;20104;-79
2023/12/26 08:04:54;;;;;;;1.08;0.70;;;;;;;;;;5034595;28;20039;-77
2023/12/26 08:07:21;;;;;;;2.95;0.93;;;;;;;;;;5029670;28;20113;-78
2023/12/26 08:09:47;;;;;;;3.13;0.80;;;;;;;;;;5036411;28;20055;-77
2023/12/26 08:12:13;;;;;;;3.15;0.93;;;;;;;;;;5033663;28;20030;-79
2023/12/26 08:14:39;;;;;;;1.20;0.80;;;;;;;;;;5032965;28;20022;-78
2023/12/26 08:17:06;;;;;;;1.23;0.55;;;;;;;;;;5028233;28;20051;-78
2023/12/26 08:19:33;;;;;;;2.95;0.95;;;;;;;;;;5044972;28;20540;-78
2023/12/26 08:21:59;;;;;;;1.80;0.70;;;;;;;;;;5027526;28;20022;-79
2023/12/26 08:24:25;;;;;;;1.52;0.70;;;;;;;;;;5039849;28;20090;-79
2023/12/26 08:26:55;;;;;;;1.45;0.90;;;;;;;;;;5027983;28;20021;-79
2023/12/26 08:29:21;;;;;;;0.90;0.52;;;;;;;;;;5032913;28;20081;-79
2023/12/26 08:31:47;;;;;;;1.45;0.70;;;;;;;;;;5034425;28;20017;-78
2023/12/26 08:34:14;;;;;;;1.48;0.80;;;;;;;;;;5040338;28;20022;-79
2023/12/26 08:36:40;;;;;;;1.60;0.73;;;;;;;;;;5033204;28;20014;-79
2023/12/26 08:39:06;;;;;;;1.75;0.95;;;;;;;;;;5044108;28;20036;-77
2023/12/26 08:41:32;;;;;;;1.90;0.70;;;;;;;;;;5036485;28;20014;-76
2023/12/26 08:43:58;;;;;;;3.60;0.70;;;;;;;;;;5043739;28;20053;-77
2023/12/26 08:46:24;;;;;;;1.92;1.00;;;;;;;;;;5033155;28;20041;-77
2023/12/26 08:48:50;;;;;;;1.58;0.73;;;;;;;;;;5052314;28;20026;-74
2023/12/26 08:51:16;;;;;;;1.38;1.10;;;;;;;;;;5035347;28;20033;-76
2023/12/26 08:53:42;;;;;;;2.45;0.68;;;;;;;;;;5046087;28;20051;-77
2023/12/26 08:56:08;;;;;;;2.08;0.80;;;;;;;;;;5044212;28;20042;-76
2023/12/26 08:58:35;;;;;;;0.80;0.80;;;;;;;;;;5033377;28;20046;-78
2023/12/26 09:01:01;;;;;;;2.97;0.68;;;;;;;;;;5021818;28;20021;-77
2023/12/26 09:03:28;;;;;;;1.83;0.98;;;;;;;;;;5034660;28;20041;-79
2023/12/26 09:05:54;;;;;;;1.17;0.95;;;;;;;;;;5043524;28;20013;-79
2023/12/26 09:08:20;;;;;;;2.50;0.98;;;;;;;;;;5031305;28;20021;-80
2023/12/26 09:10:46;;;;;;;1.40;0.70;;;;;;;;;;5035576;28;20018;-80
2023/12/26 09:13:12;;;;;;;2.88;0.60;;;;;;;;;;5022956;28;20049;-79
2023/12/26 09:15:38;;;;;;;2.17;0.90;;;;;;;;;;5039943;28;20104;-79
2023/12/26 09:18:05;;;;;;;0.57;0.52;;;;;;;;;;5024486;28;20029;-79
2023/12/26 09:20:31;;;;;;;2.05;0.77;;;;;;;;;;5030420;28;20099;-79
2023/12/26 09:22:57;;;;;;;1.48;0.70;;;;;;;;;;5033931;28;20251;-78
2023/12/26 09:25:23;;;;;;;6.13;0.95;;;;;;;;;;5035703;28;20049;-79
2023/12/26 09:27:49;;;;;;;1.55;0.60;;;;;;;;;;5030702;28;20116;-77
2023/12/26 09:30:15;;;;;;;1.23;0.70;;;;;;;;;;5035004;28;20391;-77
2023/12/26 09:32:42;;;;;;;2.90;0.80;;;;;;;;;;5034146;28;20028;-79
2023/12/26 09:35:08;;;;;;;1.48;0.77;;;;;;;;;;5030639;28;20034;-79
2023/12/26 09:37:38;;;;;;;1.48;0.68;;;;;;;;;;5027915;28;20499;-79
2023/12/26 09:40:05;;;;;;;0.90;0.70;;;;;;;;;;5031786;28;20384;-79
2023/12/26 09:42:31;;;;;;;3.42;0.88;;;;;;;;;;5027820;28;20423;-78
2023/12/26 09:44:57;;;;;;;1.48;0.70;;;;;;;;;;5033983;28;20025;-79
2023/12/26 09:47:25;;;;;;;1.73;0.65;;;;;;;;;;5026821;28;20034;-78
2023/12/26 09:49:51;;;;;;;2.55;0.90;;;;;;;;;;5028301;28;20047;-78
2023/12/26 09:52:17;;;;;;;0.68;0.60;;;;;;;;;;5027986;28;20026;-79
2023/12/26 09:54:44;;;;;;;2.58;0.85;;;;;;;;;;5029792;28;20497;-77
2023/12/26 09:57:10;;;;;;;2.15;0.80;;;;;;;;;;5029182;28;20065;-78
2023/12/26 09:59:37;;;;;;;2.28;0.98;;;;;;;;;;5029881;28;20029;-78
2023/12/26 10:02:06;;;;;;;1.42;0.82;;;;;;;;;;5031861;28;20082;-78
2023/12/26 10:04:33;;;;;;;1.27;0.80;;;;;;;;;;5040274;28;20024;-78
2023/12/26 10:06:59;;;;;;;1.00;0.50;;;;;;;;;;5030644;28;20031;-79
2023/12/26 10:09:25;;;;;;;1.85;0.80;;;;;;;;;;5029079;28;20032;-79
2023/12/26 10:11:53;;;;;;;1.23;0.88;;;;;;;;;;5031119;28;20064;-79
2023/12/26 10:14:27;;;;;;;3.15;0.70;;;;;;;;;;5043420;28;20018;-77
2023/12/26 10:16:55;;;;;;;0.63;0.50;;;;;;;;;;5022859;28;20102;-79
2023/12/26 10:19:21;;;;;;;0.85;0.70;;;;;;;;;;5028805;28;20077;-77
2023/12/26 10:21:50;;;;;;;2.70;1.17;;;;;;;;;;5033497;28;20033;-78
2023/12/26 10:24:16;;;;;;;1.20;0.80;;;;;;;;;;5035174;28;20017;-76
2023/12/26 10:26:42;;;;;;;2.25;0.98;;;;;;;;;;5048941;28;20029;-77
2023/12/26 10:29:12;;;;;;;2.65;0.98;;;;;;;;;;5027937;28;20022;-76
2023/12/26 10:31:38;;;;;;;1.00;0.60;;;;;;;;;;5029845;28;20052;-77
2023/12/26 10:34:19;;;;;;;2.08;0.90;;;;;;;;;;5034085;28;20528;-78
2023/12/26 10:36:45;;;;;;;2.70;1.10;;;;;;;;;;5025046;28;20017;-77
2023/12/26 10:39:12;;;;;;;0.65;0.55;;;;;;;;;;5028620;28;20035;-79
2023/12/26 10:41:43;;;;;;;2.58;0.55;;;;;;;;;;5030923;28;20022;-79
2023/12/26 10:44:10;;;;;;;1.85;0.80;;;;;;;;;;5032401;28;20029;-78
2023/12/26 10:46:36;;;;;;;1.48;0.68;;;;;;;;;;5034025;28;20067;-78
2023/12/26 10:49:06;;;;;;;1.05;0.68;;;;;;;;;;5020885;28;20034;-79
2023/12/26 10:51:33;;;;;;;2.60;0.88;;;;;;;;;;5039832;28;20048;-80
2023/12/26 10:54:13;;;;;;;1.10;0.75;;;;;;;;;;5030018;28;20041;-77
2023/12/26 10:56:39;;;;;;;0.82;0.63;;;;;;;;;;5028890;28;20036;-78
2023/12/26 10:59:06;;;;;;;2.50;1.08;;;;;;;;;;5032846;28;20026;-76
2023/12/26 13:59:21;;;;;;;2.38;1.10;;;;;;;;;;5028624;28;20044;-79
2023/12/26 14:01:47;;;;;;;3.63;0.82;;;;;;;;;;5051433;28;20018;-77
2023/12/26 14:04:14;;;;;;;1.50;0.70;;;;;;;;;;5049895;28;20029;-81
2023/12/26 14:06:40;;;;;;;1.13;0.85;;;;;;;;;;5034638;28;20029;-80
2023/12/26 14:09:06;;;;;;;2.20;1.00;;;;;;;;;;5028195;28;20045;-80
2023/12/26 14:11:32;;;;;;;1.25;0.60;;;;;;;;;;5048369;28;20094;-78
2023/12/26 14:13:59;;;;;;;1.58;0.93;;;;;;;;;;5042948;28;20105;-79
2023/12/26 14:16:25;;;;;;;2.67;1.10;;;;;;;;;;5048247;28;20041;-79
2023/12/26 14:18:51;;;;;;;1.13;0.90;;;;;;;;;;5041037;28;20017;-80
2023/12/26 14:21:17;;;;;;;3.80;1.20;;;;;;;;;;5032036;28;20073;-80
2023/12/26 14:23:43;;;;;;;2.25;1.00;;;;;;;;;;5040777;28;20017;-81
2023/12/26 14:26:09;;;;;;;1.52;1.13;;;;;;;;;;5033457;28;20044;-79
2023/12/26 14:28:36;;;;;;;0.80;0.63;;;;;;;;;;5032887;28;20069;-80
2023/12/26 14:31:02;;;;;;;1.50;1.13;;;;;;;;;;5040199;28;20448;-81
2023/12/26 14:33:28;;;;;;;1.75;0.88;;;;;;;;;;5030950;28;20032;-80
2023/12/26 14:35:54;;;;;;;1.05;0.70;;;;;;;;;;5039770;28;20032;-80
2023/12/26 14:38:20;;;;;;;1.55;0.73;;;;;;;;;;5030724;28;20018;-80
2023/12/26 14:40:47;;;;;;;4.60;1.17;;;;;;;;;;5026480;28;20025;-81
2023/12/26 14:43:13;;;;;;;1.30;0.82;;;;;;;;;;5033519;28;20041;-79
2023/12/26 14:45:39;;;;;;;3.00;0.90;;;;;;;;;;5038975;28;20041;-80
2023/12/26 14:48:06;;;;;;;2.55;0.80;;;;;;;;;;5026737;28;20044;-80
2023/12/26 14:50:32;;;;;;;2.83;1.02;;;;;;;;;;5037740;28;20041;-79
2023/12/26 14:52:59;;;;;;;3.42;1.13;;;;;;;;;;5026601;28;20018;-81
2023/12/26 14:55:25;;;;;;;1.15;0.70;;;;;;;;;;5037476;28;20022;-80
2023/12/26 14:57:51;;;;;;;1.00;0.80;;;;;;;;;;5038173;28;20026;-80
2023/12/26 15:00:17;;;;;;;2.13;0.93;;;;;;;;;;5032862;28;20018;-80
2023/12/26 15:02:44;;;;;;;1.50;0.80;;;;;;;;;;5037975;28;20034;-80
2023/12/26 15:05:10;;;;;;;1.40;0.70;;;;;;;;;;5030829;28;20026;-80
2023/12/26 15:07:40;;;;;;;2.40;0.98;;;;;;;;;;5027303;28;20472;-80
2023/12/26 15:10:06;;;;;;;4.70;1.02;;;;;;;;;;5038800;28;20036;-80
2023/12/26 15:12:33;;;;;;;4.28;1.00;;;;;;;;;;5030768;28;20120;-80
2023/12/26 15:14:59;;;;;;;1.15;0.63;;;;;;;;;;5036169;28;20083;-80
2023/12/26 15:17:25;;;;;;;1.20;0.90;;;;;;;;;;5025902;28;20033;-81
2023/12/26 15:19:51;;;;;;;2.30;1.00;;;;;;;;;;5029724;28;20060;-80
2023/12/26 15:22:18;;;;;;;1.35;0.85;;;;;;;;;;5040902;28;20037;-78
2023/12/26 15:24:44;;;;;;;0.60;0.60;;;;;;;;;;5033748;28;20538;-78
2023/12/26 15:27:10;;;;;;;1.52;0.65;;;;;;;;;;5041231;28;20026;-79
2023/12/26 15:29:36;;;;;;;3.85;1.00;;;;;;;;;;5037283;28;20029;-80
2023/12/26 15:32:03;;;;;;;1.13;0.60;;;;;;;;;;5032627;28;20084;-80
2023/12/26 15:34:29;;;;;;;0.90;0.70;;;;;;;;;;5033884;28;20041;-79
2023/12/26 15:36:56;;;;;;;2.13;0.80;;;;;;;;;;5033179;28;20029;-80
2023/12/26 15:39:22;;;;;;;1.65;0.82;;;;;;;;;;5040895;28;20022;-80
2023/12/26 15:41:48;;;;;;;1.75;0.95;;;;;;;;;;5042245;28;20029;-80
2023/12/26 15:44:14;;;;;;;1.38;0.80;;;;;;;;;;5034434;28;20079;-78
2023/12/26 15:46:40;;;;;;;1.98;0.88;;;;;;;;;;5040180;28;20030;-79
2023/12/26 15:49:06;;;;;;;3.40;1.00;;;;;;;;;;5039744;28;20064;-80
2023/12/26 15:51:32;;;;;;;2.40;0.95;;;;;;;;;;5028268;28;20025;-79
2023/12/26 15:54:01;;;;;;;1.58;0.82;;;;;;;;;;5030612;28;20053;-78
2023/12/26 15:56:28;;;;;;;0.85;0.70;;;;;;;;;;5032407;28;20028;-82
2023/12/26 15:58:54;;;;;;;0.70;0.70;;;;;;;;;;5040264;28;20014;-79
2023/12/26 16:01:21;;;;;;;2.03;0.90;;;;;;;;;;5033022;28;20075;-79
2023/12/26 16:03:50;;;;;;;1.08;0.77;;;;;;;;;;5041546;28;20387;-79
2023/12/26 16:06:24;;;;;;;1.00;0.63;;;;;;;;;;5031697;28;20041;-78
2023/12/26 16:08:50;;;;;;;1.13;0.60;;;;;;;;;;5028494;28;20033;-80
2023/12/26 16:11:16;;;;;;;1.02;0.90;;;;;;;;;;5042362;28;20021;-79
2023/12/26 16:13:42;;;;;;;1.15;0.88;;;;;;;;;;5043094;28;20026;-80
2023/12/26 16:16:09;;;;;;;0.60;0.60;;;;;;;;;;5033892;28;20104;-80
2023/12/26 16:18:38;;;;;;;1.98;0.90;;;;;;;;;;5027029;28;20010;-80
2023/12/26 16:21:05;;;;;;;1.35;1.02;;;;;;;;;;5030759;28;20022;-79
2023/12/26 16:23:31;;;;;;;1.05;0.88;;;;;;;;;;5026172;28;20066;-79
2023/12/26 16:25:57;;;;;;;0.60;0.60;;;;;;;;;;5041594;28;20025;-80
2023/12/26 16:28:23;;;;;;;2.30;0.95;;;;;;;;;;5034226;28;20021;-79
2023/12/26 16:30:49;;;;;;;1.05;0.90;;;;;;;;;;5041199;28;20026;-79
2023/12/26 16:33:16;;;;;;;0.90;0.77;;;;;;;;;;5033299;28;20053;-80
2023/12/26 16:35:42;;;;;;;1.63;1.02;;;;;;;;;;5041680;28;20025;-80
2023/12/26 16:38:08;;;;;;;1.67;1.00;;;;;;;;;;5041340;28;20124;-79
2023/12/26 16:40:34;;;;;;;0.85;0.65;;;;;;;;;;5034902;28;20012;-80
2023/12/26 16:43:01;;;;;;;4.05;1.20;;;;;;;;;;5034963;28;20045;-80
2023/12/26 16:45:27;;;;;;;0.98;0.88;;;;;;;;;;5034967;28;20468;-81
2023/12/26 16:47:53;;;;;;;1.60;0.90;;;;;;;;;;5033534;28;20160;-81
2023/12/26 16:50:20;;;;;;;1.20;0.98;;;;;;;;;;5026275;28;20393;-80
2023/12/26 16:52:46;;;;;;;1.95;1.08;;;;;;;;;;5041717;28;20021;-80
2023/12/26 16:55:13;;;;;;;1.17;0.85;;;;;;;;;;5032894;28;20024;-80
2023/12/26 16:57:39;;;;;;;2.70;1.38;;;;;;;;;;5033064;28;20056;-78
2023/12/26 17:00:05;;;;;;;2.33;1.02;;;;;;;;;;5034029;28;20025;-81
2023/12/26 17:02:32;;;;;;;2.70;1.33;;;;;;;;;;5043193;28;20515;-80
2023/12/26 17:04:58;;;;;;;2.45;1.35;;;;;;;;;;5033218;28;20036;-81
2023/12/26 17:07:24;;;;;;;1.83;1.00;;;;;;;;;;5024242;28;20017;-81
2023/12/26 17:09:50;;;;;;;2.92;1.60;;;;;;;;;;5033081;28;20029;-80
2023/12/26 17:12:17;;;;;;;3.80;1.50;;;;;;;;;;5043287;28;20080;-77
2023/12/26 17:14:43;;;;;;;2.75;1.27;;;;;;;;;;5035464;28;20025;-80
2023/12/26 17:17:09;;;;;;;1.92;1.20;;;;;;;;;;5043407;28;20032;-78
2023/12/26 17:19:35;;;;;;;2.00;1.15;;;;;;;;;;5050673;28;20090;-77
2023/12/26 17:22:01;;;;;;;2.05;1.15;;;;;;;;;;5045892;28;20097;-78
2023/12/26 17:24:28;;;;;;;1.95;1.13;;;;;;;;;;5056882;28;20029;-77
2023/12/26 17:26:54;;;;;;;1.55;1.00;;;;;;;;;;5048162;28;20032;-78
2023/12/26 17:29:20;;;;;;;1.17;1.08;;;;;;;;;;5052611;28;20034;-78
2023/12/26 17:31:52;;;;;;;1.17;1.02;;;;;;;;;;5044779;28;20014;-79
2023/12/26 17:34:19;;;;;;;3.58;1.38;;;;;;;;;;5055002;28;20053;-77
2023/12/26 17:36:45;;;;;;;1.50;0.95;;;;;;;;;;5048033;28;20016;-77